createdAt,value
2022-08-22T00:02:48.332Z,12.30
2022-08-22T00:02:58.608Z,12.25
2022-08-22T00:03:01.690Z,11.95
2022-08-22T00:04:33.363Z,13.48
2022-08-22T00:09:40.301Z,12.10
2022-08-22T00:14:43.761Z,13.32
2022-08-22T00:19:51.426Z,13.48
2022-08-22T00:24:54.680Z,12.18
2022-08-22T00:29:56.626Z,12.63
2022-08-22T00:34:58.891Z,12.80
2022-08-22T00:40:08.444Z,12.45
2022-08-22T00:45:29.666Z,12.82
2022-08-22T00:50:42.329Z,11.48
2022-08-22T00:56:04.747Z,10.02
2022-08-22T01:01:07.828Z,11.27
2022-08-22T01:06:25.118Z,10.68
2022-08-22T01:11:39.689Z,10.93
2022-08-22T01:17:00.421Z,10.90
2022-08-22T01:22:34.292Z,10.85
2022-08-22T01:28:01.860Z,10.90
2022-08-22T01:33:41.202Z,10.35
2022-08-22T01:39:19.579Z,9.65
2022-08-22T01:44:35.610Z,9.98
2022-08-22T01:49:39.892Z,11.38
2022-08-22T01:54:48.014Z,11.48
2022-08-22T01:59:48.748Z,10.50
2022-08-22T02:04:55.103Z,10.57
2022-08-22T02:10:05.975Z,11.50
2022-08-22T02:15:15.945Z,11.45
2022-08-22T02:20:23.324Z,11.10
2022-08-22T02:25:28.644Z,10.68
2022-08-22T02:30:42.179Z,11.25
2022-08-22T02:35:54.562Z,9.48
2022-08-22T02:41:04.831Z,10.93
2022-08-22T02:46:14.246Z,10.82
2022-08-22T02:51:19.294Z,10.32
2022-08-22T02:56:24.463Z,11.13
2022-08-22T03:01:33.404Z,10.45
2022-08-22T03:06:35.421Z,10.05
2022-08-22T03:11:39.228Z,10.02
2022-08-22T03:16:40.392Z,10.67
2022-08-22T03:21:44.934Z,10.73
2022-08-22T03:26:49.322Z,10.65
2022-08-22T03:37:16.740Z,11.52
2022-08-22T03:42:46.632Z,11.57
2022-08-22T03:47:58.588Z,10.23
2022-08-22T03:53:28.179Z,9.80
2022-08-22T03:58:46.920Z,9.57
2022-08-22T04:04:16.096Z,9.75
2022-08-22T04:09:51.380Z,11.07
2022-08-22T04:15:11.556Z,10.15
2022-08-22T04:20:38.896Z,11.55
2022-08-22T04:25:40.603Z,9.43
2022-08-22T04:30:44.909Z,9.25
2022-08-22T04:35:50.843Z,10.43
2022-08-22T04:40:53.935Z,10.02
2022-08-22T04:45:56.153Z,9.45
2022-08-22T04:50:57.977Z,8.95
2022-08-22T04:56:07.639Z,8.52
2022-08-22T05:01:12.991Z,9.88
2022-08-22T05:06:11.491Z,8.13
2022-08-22T05:11:11.154Z,8.23
2022-08-22T05:16:14.083Z,7.18
2022-08-22T05:21:13.952Z,8.00
2022-08-22T05:26:13.506Z,7.45
2022-08-22T05:31:14.389Z,7.75
2022-08-22T05:36:16.516Z,9.15
2022-08-22T05:41:25.662Z,8.05
2022-08-22T05:46:27.016Z,8.45
2022-08-22T05:51:27.131Z,8.05
2022-08-22T05:56:35.703Z,8.02
2022-08-22T06:01:41.785Z,7.80
2022-08-22T06:06:43.852Z,7.93
2022-08-22T06:11:51.929Z,8.27
2022-08-22T06:16:56.374Z,8.23
2022-08-22T06:21:55.802Z,7.50
2022-08-22T06:26:58.302Z,7.32
2022-08-22T06:31:58.061Z,7.45
2022-08-22T06:37:02.219Z,7.68
2022-08-22T06:42:03.290Z,6.75
2022-08-22T06:47:05.970Z,7.05
2022-08-22T06:52:08.153Z,8.93
2022-08-22T06:57:06.497Z,6.90
2022-08-22T07:02:16.381Z,6.32
2022-08-22T07:07:19.009Z,7.35
2022-08-22T07:12:19.127Z,8.07
2022-08-22T07:17:19.318Z,7.53
2022-08-22T07:22:22.477Z,7.75
2022-08-22T07:27:36.878Z,7.45
2022-08-22T07:32:43.097Z,8.75
2022-08-22T07:37:50.228Z,7.03
2022-08-22T07:42:52.147Z,6.50
2022-08-22T07:48:04.939Z,6.47
2022-08-22T07:53:13.888Z,6.90
2022-08-22T07:58:14.904Z,6.45
2022-08-22T08:03:13.039Z,7.28
2022-08-22T08:08:30.586Z,6.32
2022-08-22T08:13:34.090Z,6.55
2022-08-22T08:18:34.478Z,7.10
2022-08-22T08:23:39.564Z,7.45
2022-08-22T08:28:45.202Z,6.47
2022-08-22T08:33:47.379Z,6.72
2022-08-22T08:39:02.727Z,7.63
2022-08-22T08:44:12.388Z,7.35
2022-08-22T08:49:25.784Z,6.72
2022-08-22T08:54:48.689Z,6.10
2022-08-22T09:00:02.210Z,5.25
2022-08-22T09:05:41.207Z,7.30
2022-08-22T09:11:28.145Z,5.97
2022-08-22T09:16:51.567Z,6.30
2022-08-22T09:22:21.386Z,5.22
2022-08-22T09:27:29.513Z,5.10
2022-08-22T09:32:42.239Z,5.07
2022-08-22T09:38:09.314Z,5.50
2022-08-22T09:43:11.070Z,5.38
2022-08-22T09:48:21.248Z,4.60
2022-08-22T10:06:59.163Z,6.38
2022-08-22T10:12:44.780Z,6.45
2022-08-22T10:18:03.386Z,5.05
2022-08-22T10:23:15.775Z,5.30
2022-08-22T10:28:18.745Z,6.70
2022-08-22T10:33:36.457Z,5.45
2022-08-22T10:38:44.164Z,6.20
2022-08-22T10:44:09.601Z,5.93
2022-08-22T10:49:28.226Z,6.10
2022-08-22T10:54:44.168Z,5.25
2022-08-22T10:59:46.141Z,6.72
2022-08-22T11:05:07.567Z,5.15
2022-08-22T11:10:17.359Z,4.78
2022-08-22T11:15:27.230Z,6.25
2022-08-22T11:20:41.262Z,5.60
2022-08-22T11:25:52.359Z,5.70
2022-08-22T11:31:03.087Z,5.35
2022-08-22T11:36:26.140Z,4.97
2022-08-22T11:41:36.407Z,5.32
2022-08-22T11:46:36.816Z,5.35
2022-08-22T11:52:16.458Z,6.07
2022-08-22T11:57:20.575Z,5.80
2022-08-22T12:02:25.878Z,6.72
2022-08-22T12:07:28.722Z,7.03
2022-08-22T12:12:55.070Z,7.17
2022-08-22T12:18:21.941Z,6.15
2022-08-22T12:24:00.418Z,6.63
2022-08-22T12:29:20.241Z,7.00
2022-08-22T12:34:50.430Z,5.50
2022-08-22T12:40:22.044Z,5.45
2022-08-22T12:45:54.816Z,6.43
2022-08-22T12:50:57.898Z,5.80
2022-08-22T12:56:10.283Z,5.57
2022-08-22T13:01:12.462Z,6.25
2022-08-22T13:06:54.624Z,5.65
2022-08-22T13:12:02.474Z,5.57
2022-08-22T13:17:23.665Z,5.88
2022-08-22T13:22:26.891Z,5.40
2022-08-22T13:27:31.258Z,6.15
2022-08-22T13:32:35.607Z,5.13
2022-08-22T13:37:38.358Z,5.70
2022-08-22T13:42:45.117Z,6.43
2022-08-22T13:47:55.161Z,5.15
2022-08-22T13:53:07.087Z,5.68
2022-08-22T13:58:24.964Z,6.32
2022-08-22T14:03:32.173Z,5.60
2022-08-22T14:08:35.769Z,5.15
2022-08-22T14:18:45.533Z,4.88
2022-08-22T14:23:54.990Z,5.38
2022-08-22T14:28:57.437Z,5.00
2022-08-22T14:33:58.969Z,5.22
2022-08-22T14:39:30.271Z,5.25
2022-08-22T14:44:42.687Z,4.60
2022-08-22T14:49:52.620Z,5.03
2022-08-22T14:55:08.279Z,5.75
2022-08-22T15:00:11.427Z,6.70
2022-08-22T15:05:24.060Z,5.25
2022-08-22T15:11:31.962Z,5.85
2022-08-22T15:16:41.786Z,5.70
2022-08-22T15:22:14.072Z,5.30
2022-08-22T15:27:33.754Z,4.85
2022-08-22T15:32:41.911Z,4.68
2022-08-22T15:38:11.206Z,5.95
2022-08-22T15:43:20.065Z,5.65
2022-08-22T15:48:29.670Z,5.10
2022-08-22T15:53:33.562Z,5.38
2022-08-22T15:58:48.744Z,5.47
2022-08-22T16:03:58.346Z,5.78
2022-08-22T16:09:02.609Z,5.53
2022-08-22T16:14:22.307Z,6.35
2022-08-22T16:19:31.772Z,6.18
2022-08-22T16:25:05.791Z,6.20
2022-08-22T16:30:37.168Z,6.97
2022-08-22T16:36:25.733Z,6.20
2022-08-22T16:41:33.636Z,6.65
2022-08-22T16:47:05.661Z,6.30
2022-08-22T16:53:03.062Z,6.07
2022-08-22T16:58:50.228Z,6.20
2022-08-22T17:04:33.216Z,5.88
2022-08-22T17:10:07.904Z,6.65
2022-08-22T17:16:34.711Z,6.50
2022-08-22T17:22:08.733Z,7.18
2022-08-22T17:27:21.492Z,8.15
2022-08-22T17:32:34.890Z,7.28
2022-08-22T17:37:55.174Z,9.38
2022-08-22T17:43:10.107Z,8.07
2022-08-22T17:48:17.169Z,5.63
2022-08-22T17:53:29.525Z,4.90
2022-08-22T17:58:47.851Z,5.30
2022-08-22T18:04:09.376Z,4.20
2022-08-22T18:09:38.320Z,4.22
2022-08-22T18:15:07.968Z,5.60
2022-08-22T18:20:18.715Z,4.43
2022-08-22T18:25:59.632Z,5.45
2022-08-22T18:31:19.799Z,4.90
2022-08-22T18:36:45.792Z,5.70
2022-08-22T18:42:30.061Z,5.43
2022-08-22T18:47:33.776Z,5.32
2022-08-22T18:52:57.811Z,5.20
2022-08-22T18:58:41.536Z,6.32
2022-08-22T19:04:25.914Z,5.60
2022-08-22T19:10:13.209Z,5.20
2022-08-22T19:15:27.098Z,5.88
2022-08-22T19:26:47.185Z,4.78
2022-08-22T19:31:50.328Z,5.10
2022-08-22T19:37:33.126Z,4.88
2022-08-22T19:42:41.214Z,4.82
2022-08-22T19:47:58.129Z,4.28
2022-08-22T19:53:13.866Z,4.53
2022-08-22T19:58:32.581Z,5.18
2022-08-22T20:03:50.052Z,3.70
2022-08-22T20:09:03.121Z,5.47
2022-08-22T20:14:30.382Z,4.82
2022-08-22T20:20:19.338Z,5.05
2022-08-22T20:25:42.134Z,4.18
2022-08-22T20:30:50.092Z,4.65
2022-08-22T20:35:52.455Z,4.07
2022-08-22T20:41:00.529Z,4.75
2022-08-22T20:46:16.578Z,3.92
2022-08-22T20:51:21.525Z,3.50
2022-08-22T20:57:06.164Z,3.85
2022-08-22T21:02:40.747Z,3.85
2022-08-22T21:07:44.693Z,4.25
2022-08-22T21:13:03.267Z,4.30
2022-08-22T21:18:03.356Z,4.57
2022-08-22T21:23:04.561Z,4.20
2022-08-22T21:28:02.064Z,4.40
2022-08-22T21:33:06.005Z,4.47
2022-08-22T21:38:27.680Z,5.07
2022-08-22T21:43:30.963Z,3.88
2022-08-22T21:48:40.952Z,4.18
2022-08-22T21:53:39.931Z,4.82
2022-08-22T21:59:12.461Z,6.15
2022-08-22T22:04:10.998Z,4.95
2022-08-22T22:09:14.950Z,5.97
2022-08-22T22:14:17.330Z,4.53
2022-08-22T22:19:18.672Z,5.45
2022-08-22T22:24:23.981Z,5.50
2022-08-22T22:29:21.504Z,5.70
2022-08-22T22:34:19.626Z,7.10
2022-08-22T22:39:22.496Z,5.85
2022-08-22T22:44:23.923Z,7.82
2022-08-22T22:49:24.154Z,6.68
2022-08-22T22:54:27.343Z,7.20
2022-08-22T22:59:30.267Z,6.18
2022-08-22T23:04:36.056Z,5.90
2022-08-22T23:10:11.919Z,6.60
2022-08-22T23:15:22.591Z,5.63
2022-08-22T23:20:24.372Z,6.00
2022-08-22T23:25:26.356Z,5.47
2022-08-22T23:30:26.682Z,7.38
2022-08-22T23:35:30.554Z,7.65
2022-08-22T23:40:34.096Z,6.72
2022-08-22T23:45:33.249Z,6.60
2022-08-22T23:50:31.231Z,6.15
2022-08-22T23:55:28.379Z,5.95
